sensor_id;sensor_type;location;lat;lon;timestamp;pressure;altitude;pressure_sealevel;temperature;humidity
70248;BME280;57641;51.416;5.506;2023-07-22T00:01:00;101499.94;;;20.96;50.11
70248;BME280;57641;51.416;5.506;2023-07-22T00:03:26;101505.34;;;20.83;49.28
70248;BME280;57641;51.416;5.506;2023-07-22T00:06:09;101507.22;;;20.89;49.64
70248;BME280;57641;51.416;5.506;2023-07-22T00:08:36;101500.34;;;20.86;49.58
70248;BME280;57641;51.416;5.506;2023-07-22T00:11:06;101495.53;;;20.82;50.26
70248;BME280;57641;51.416;5.506;2023-07-22T00:13:32;101489.50;;;20.86;49.33
70248;BME280;57641;51.416;5.506;2023-07-22T00:15:58;101494.91;;;20.86;49.96
70248;BME280;57641;51.416;5.506;2023-07-22T00:18:29;101490.75;;;20.90;49.92
70248;BME280;57641;51.416;5.506;2023-07-22T00:20:56;101492.22;;;20.86;48.87
70248;BME280;57641;51.416;5.506;2023-07-22T00:23:23;101492.19;;;20.80;48.84
70248;BME280;57641;51.416;5.506;2023-07-22T00:25:50;101492.41;;;20.85;48.75
70248;BME280;57641;51.416;5.506;2023-07-22T00:28:16;101495.53;;;20.82;48.08
70248;BME280;57641;51.416;5.506;2023-07-22T00:30:42;101498.88;;;20.90;48.79
70248;BME280;57641;51.416;5.506;2023-07-22T00:33:08;101486.38;;;20.96;49.02
70248;BME280;57641;51.416;5.506;2023-07-22T00:35:34;101493.06;;;20.93;48.38
70248;BME280;57641;51.416;5.506;2023-07-22T00:38:00;101481.16;;;20.94;48.97
70248;BME280;57641;51.416;5.506;2023-07-22T00:40:27;101486.59;;;20.88;48.22
70248;BME280;57641;51.416;5.506;2023-07-22T00:42:55;101482.22;;;20.93;48.36
70248;BME280;57641;51.416;5.506;2023-07-22T00:45:21;101483.88;;;21.01;48.47
70248;BME280;57641;51.416;5.506;2023-07-22T00:47:48;101483.88;;;20.94;48.29
70248;BME280;57641;51.416;5.506;2023-07-22T00:50:14;101480.75;;;20.91;48.37
70248;BME280;57641;51.416;5.506;2023-07-22T00:52:40;101475.97;;;20.93;47.70
70248;BME280;57641;51.416;5.506;2023-07-22T00:55:07;101473.88;;;21.01;48.01
70248;BME280;57641;51.416;5.506;2023-07-22T00:57:33;101477.59;;;20.94;47.83
70248;BME280;57641;51.416;5.506;2023-07-22T00:59:58;101482.41;;;20.92;48.24
70248;BME280;57641;51.416;5.506;2023-07-22T01:02:26;101482.41;;;20.92;48.32
70248;BME280;57641;51.416;5.506;2023-07-22T01:04:52;101472.41;;;20.86;48.10
70248;BME280;57641;51.416;5.506;2023-07-22T01:07:18;101481.31;;;20.73;48.38
70248;BME280;57641;51.416;5.506;2023-07-22T01:09:44;101484.69;;;20.82;48.18
70248;BME280;57641;51.416;5.506;2023-07-22T01:12:11;101481.56;;;20.85;48.35
70248;BME280;57641;51.416;5.506;2023-07-22T01:14:39;101471.97;;;20.82;48.76
70248;BME280;57641;51.416;5.506;2023-07-22T01:17:06;101474.28;;;20.85;49.05
70248;BME280;57641;51.416;5.506;2023-07-22T01:19:33;101475.94;;;20.86;49.41
70248;BME280;57641;51.416;5.506;2023-07-22T01:22:01;101466.97;;;20.86;49.24
70248;BME280;57641;51.416;5.506;2023-07-22T01:24:28;101474.69;;;20.89;48.98
70248;BME280;57641;51.416;5.506;2023-07-22T01:26:54;101473.03;;;20.88;49.39
70248;BME280;57641;51.416;5.506;2023-07-22T01:29:22;101462.56;;;20.78;49.49
70248;BME280;57641;51.416;5.506;2023-07-22T01:31:53;101460.91;;;20.71;49.30
70248;BME280;57641;51.416;5.506;2023-07-22T01:34:20;101463.41;;;20.79;49.52
70248;BME280;57641;51.416;5.506;2023-07-22T01:36:46;101469.19;;;20.62;49.19
70248;BME280;57641;51.416;5.506;2023-07-22T01:39:16;101463.59;;;20.71;49.28
70248;BME280;57641;51.416;5.506;2023-07-22T01:41:42;101463.81;;;20.69;49.46
70248;BME280;57641;51.416;5.506;2023-07-22T01:44:08;101460.25;;;20.62;49.44
70248;BME280;57641;51.416;5.506;2023-07-22T01:46:34;101453.59;;;20.64;50.27
70248;BME280;57641;51.416;5.506;2023-07-22T01:49:05;101452.50;;;20.52;50.02
70248;BME280;57641;51.416;5.506;2023-07-22T01:51:32;101440.19;;;20.43;50.88
70248;BME280;57641;51.416;5.506;2023-07-22T01:53:57;101441.44;;;20.47;50.09
70248;BME280;57641;51.416;5.506;2023-07-22T01:56:23;101447.69;;;20.48;51.27
70248;BME280;57641;51.416;5.506;2023-07-22T01:58:50;101452.06;;;20.49;51.96
70248;BME280;57641;51.416;5.506;2023-07-22T02:01:15;101450.00;;;20.57;51.50
70248;BME280;57641;51.416;5.506;2023-07-22T02:03:42;101455.00;;;20.54;52.07
70248;BME280;57641;51.416;5.506;2023-07-22T02:06:08;101453.97;;;20.55;52.58
70248;BME280;57641;51.416;5.506;2023-07-22T02:08:33;101450.22;;;20.49;52.60
70248;BME280;57641;51.416;5.506;2023-07-22T02:11:07;101448.34;;;20.50;52.77
70248;BME280;57641;51.416;5.506;2023-07-22T02:13:34;101447.03;;;20.33;52.89
70248;BME280;57641;51.416;5.506;2023-07-22T02:16:02;101448.63;;;20.27;52.88
70248;BME280;57641;51.416;5.506;2023-07-22T02:18:28;101450.13;;;20.30;53.28
70248;BME280;57641;51.416;5.506;2023-07-22T02:20:54;101447.34;;;20.16;53.62
70248;BME280;57641;51.416;5.506;2023-07-22T02:23:21;101447.19;;;20.24;53.18
70248;BME280;57641;51.416;5.506;2023-07-22T02:25:53;101449.00;;;20.17;53.71
70248;BME280;57641;51.416;5.506;2023-07-22T02:28:20;101447.28;;;20.10;53.73
70248;BME280;57641;51.416;5.506;2023-07-22T02:30:50;101432.69;;;20.04;53.76
70248;BME280;57641;51.416;5.506;2023-07-22T02:33:20;101439.41;;;20.08;53.69
70248;BME280;57641;51.416;5.506;2023-07-22T02:35:47;101438.78;;;20.13;53.70
70248;BME280;57641;51.416;5.506;2023-07-22T02:38:14;101437.94;;;20.12;53.73
70248;BME280;57641;51.416;5.506;2023-07-22T02:40:40;101438.94;;;20.05;53.78
70248;BME280;57641;51.416;5.506;2023-07-22T02:43:05;101437.75;;;20.14;53.34
70248;BME280;57641;51.416;5.506;2023-07-22T02:45:36;101441.50;;;20.13;54.21
70248;BME280;57641;51.416;5.506;2023-07-22T02:48:02;101436.22;;;19.98;53.71
70248;BME280;57641;51.416;5.506;2023-07-22T02:50:28;101430.16;;;19.96;54.00
70248;BME280;57641;51.416;5.506;2023-07-22T02:52:54;101430.63;;;20.06;53.59
70248;BME280;57641;51.416;5.506;2023-07-22T02:55:20;101427.88;;;20.00;53.72
70248;BME280;57641;51.416;5.506;2023-07-22T02:57:46;101432.00;;;19.89;53.79
70248;BME280;57641;51.416;5.506;2023-07-22T03:00:15;101430.63;;;20.06;53.30
70248;BME280;57641;51.416;5.506;2023-07-22T03:02:55;101429.97;;;19.98;53.33
70248;BME280;57641;51.416;5.506;2023-07-22T03:05:29;101439.31;;;19.95;53.78
70248;BME280;57641;51.416;5.506;2023-07-22T03:07:55;101429.94;;;19.91;53.90
70248;BME280;57641;51.416;5.506;2023-07-22T03:10:21;101438.44;;;19.88;53.47
70248;BME280;57641;51.416;5.506;2023-07-22T03:12:47;101441.25;;;19.73;53.58
70248;BME280;57641;51.416;5.506;2023-07-22T03:15:13;101448.00;;;19.84;53.47
70248;BME280;57641;51.416;5.506;2023-07-22T03:17:39;101444.44;;;19.83;53.58
70248;BME280;57641;51.416;5.506;2023-07-22T03:20:08;101445.28;;;19.84;53.55
70248;BME280;57641;51.416;5.506;2023-07-22T03:22:43;101447.16;;;19.83;53.22
70248;BME280;57641;51.416;5.506;2023-07-22T03:25:12;101447.72;;;19.72;53.49
70248;BME280;57641;51.416;5.506;2023-07-22T03:27:38;101447.94;;;19.71;53.60
70248;BME280;57641;51.416;5.506;2023-07-22T03:30:04;101451.63;;;19.63;53.51
70248;BME280;57641;51.416;5.506;2023-07-22T03:32:34;101451.22;;;19.66;53.52
70248;BME280;57641;51.416;5.506;2023-07-22T03:35:00;101455.41;;;19.69;53.70
70248;BME280;57641;51.416;5.506;2023-07-22T03:37:29;101449.97;;;19.69;53.54
70248;BME280;57641;51.416;5.506;2023-07-22T03:39:55;101460.97;;;19.61;53.49
70248;BME280;57641;51.416;5.506;2023-07-22T03:42:21;101455.63;;;19.74;53.18
70248;BME280;57641;51.416;5.506;2023-07-22T03:44:46;101457.72;;;19.72;53.64
70248;BME280;57641;51.416;5.506;2023-07-22T03:47:12;101458.09;;;19.69;53.31
70248;BME280;57641;51.416;5.506;2023-07-22T03:49:37;101457.84;;;19.64;53.61
70248;BME280;57641;51.416;5.506;2023-07-22T03:52:03;101458.28;;;19.67;53.55
70248;BME280;57641;51.416;5.506;2023-07-22T03:54:29;101464.31;;;19.63;53.79
70248;BME280;57641;51.416;5.506;2023-07-22T03:56:55;101454.78;;;19.67;53.52
70248;BME280;57641;51.416;5.506;2023-07-22T03:59:20;101455.81;;;19.66;53.81
70248;BME280;57641;51.416;5.506;2023-07-22T04:01:46;101456.41;;;19.61;53.72
70248;BME280;57641;51.416;5.506;2023-07-22T04:04:16;101459.34;;;19.66;53.58
70248;BME280;57641;51.416;5.506;2023-07-22T04:06:41;101447.44;;;19.61;54.05
70248;BME280;57641;51.416;5.506;2023-07-22T04:09:07;101457.03;;;19.63;54.14
70248;BME280;57641;51.416;5.506;2023-07-22T04:11:32;101449.91;;;19.56;53.89
70248;BME280;57641;51.416;5.506;2023-07-22T04:13:58;101457.38;;;19.54;54.11
70248;BME280;57641;51.416;5.506;2023-07-22T04:16:23;101451.78;;;19.55;53.73
70248;BME280;57641;51.416;5.506;2023-07-22T04:18:48;101452.94;;;19.46;53.92
70248;BME280;57641;51.416;5.506;2023-07-22T04:21:14;101455.25;;;19.49;54.10
70248;BME280;57641;51.416;5.506;2023-07-22T04:23:40;101454.47;;;19.55;54.07
70248;BME280;57641;51.416;5.506;2023-07-22T04:26:05;101448.00;;;19.50;53.84
70248;BME280;57641;51.416;5.506;2023-07-22T04:28:33;101453.50;;;19.41;54.66
70248;BME280;57641;51.416;5.506;2023-07-22T04:31:00;101451.56;;;19.35;55.19
70248;BME280;57641;51.416;5.506;2023-07-22T04:33:26;101457.19;;;19.34;55.13
70248;BME280;57641;51.416;5.506;2023-07-22T04:35:58;101458.03;;;19.34;55.33
70248;BME280;57641;51.416;5.506;2023-07-22T04:38:24;101451.97;;;19.32;55.05
70248;BME280;57641;51.416;5.506;2023-07-22T04:40:50;101470.91;;;19.32;55.00
70248;BME280;57641;51.416;5.506;2023-07-22T04:43:17;101465.09;;;19.35;55.29
70248;BME280;57641;51.416;5.506;2023-07-22T04:45:46;101472.44;;;19.41;55.12
70248;BME280;57641;51.416;5.506;2023-07-22T04:48:17;101465.44;;;19.26;54.75
70248;BME280;57641;51.416;5.506;2023-07-22T04:50:44;101460.41;;;19.44;54.33
70248;BME280;57641;51.416;5.506;2023-07-22T04:53:11;101461.28;;;19.45;54.19
70248;BME280;57641;51.416;5.506;2023-07-22T04:55:43;101460.41;;;19.44;54.91
70248;BME280;57641;51.416;5.506;2023-07-22T04:58:08;101471.56;;;19.34;54.77
70248;BME280;57641;51.416;5.506;2023-07-22T05:00:37;101467.94;;;19.49;54.39
70248;BME280;57641;51.416;5.506;2023-07-22T05:03:05;101469.69;;;19.56;54.49
70248;BME280;57641;51.416;5.506;2023-07-22T05:05:32;101464.47;;;19.55;54.11
70248;BME280;57641;51.416;5.506;2023-07-22T05:07:58;101464.94;;;19.65;54.33
70248;BME280;57641;51.416;5.506;2023-07-22T05:10:23;101467.00;;;19.63;54.25
70248;BME280;57641;51.416;5.506;2023-07-22T05:12:49;101469.94;;;19.68;54.01
70248;BME280;57641;51.416;5.506;2023-07-22T05:15:15;101469.75;;;19.69;53.95
70248;BME280;57641;51.416;5.506;2023-07-22T05:17:44;101474.34;;;19.69;54.06
70248;BME280;57641;51.416;5.506;2023-07-22T05:20:10;101481.31;;;19.85;54.46
70248;BME280;57641;51.416;5.506;2023-07-22T05:22:43;101478.00;;;19.89;53.95
70248;BME280;57641;51.416;5.506;2023-07-22T05:25:09;101471.13;;;19.87;53.02
70248;BME280;57641;51.416;5.506;2023-07-22T05:27:36;101468.06;;;19.96;53.97
70248;BME280;57641;51.416;5.506;2023-07-22T05:30:02;101476.81;;;19.98;54.13
70248;BME280;57641;51.416;5.506;2023-07-22T05:32:28;101481.41;;;19.98;53.82
70248;BME280;57641;51.416;5.506;2023-07-22T05:34:55;101482.50;;;20.10;53.90
70248;BME280;57641;51.416;5.506;2023-07-22T05:37:24;101477.06;;;20.10;53.71
70248;BME280;57641;51.416;5.506;2023-07-22T05:39:50;101480.00;;;20.08;53.60
70248;BME280;57641;51.416;5.506;2023-07-22T05:42:17;101480.44;;;20.12;53.89
70248;BME280;57641;51.416;5.506;2023-07-22T05:44:44;101476.69;;;20.13;53.85
70248;BME280;57641;51.416;5.506;2023-07-22T05:47:09;101469.38;;;20.07;53.96
70248;BME280;57641;51.416;5.506;2023-07-22T05:49:35;101474.00;;;20.13;53.58
70248;BME280;57641;51.416;5.506;2023-07-22T05:52:04;101466.66;;;20.07;53.37
70248;BME280;57641;51.416;5.506;2023-07-22T05:54:29;101472.97;;;20.14;53.83
70248;BME280;57641;51.416;5.506;2023-07-22T05:56:55;101468.81;;;20.18;53.84
70248;BME280;57641;51.416;5.506;2023-07-22T05:59:21;101473.53;;;20.09;53.89
70248;BME280;57641;51.416;5.506;2023-07-22T06:01:47;101467.09;;;20.10;54.18
70248;BME280;57641;51.416;5.506;2023-07-22T06:04:13;101467.34;;;20.22;54.11
70248;BME280;57641;51.416;5.506;2023-07-22T06:06:38;101468.84;;;20.24;53.68
70248;BME280;57641;51.416;5.506;2023-07-22T06:09:04;101456.56;;;20.29;53.88
70248;BME280;57641;51.416;5.506;2023-07-22T06:11:30;101459.28;;;20.29;53.81
70248;BME280;57641;51.416;5.506;2023-07-22T06:13:56;101460.38;;;20.34;53.68
70248;BME280;57641;51.416;5.506;2023-07-22T06:16:21;101459.34;;;20.35;53.81
70248;BME280;57641;51.416;5.506;2023-07-22T06:18:47;101462.38;;;20.25;54.09
70248;BME280;57641;51.416;5.506;2023-07-22T06:21:13;101458.06;;;20.38;54.13
70248;BME280;57641;51.416;5.506;2023-07-22T06:23:41;101455.44;;;20.57;53.86
70248;BME280;57641;51.416;5.506;2023-07-22T06:26:07;101462.13;;;20.68;53.54
70248;BME280;57641;51.416;5.506;2023-07-22T06:28:38;101462.97;;;20.69;53.78
70248;BME280;57641;51.416;5.506;2023-07-22T06:31:05;101464.41;;;20.51;54.32
70248;BME280;57641;51.416;5.506;2023-07-22T06:33:30;101467.75;;;20.60;54.17
70248;BME280;57641;51.416;5.506;2023-07-22T06:35:56;101459.63;;;20.73;53.81
70248;BME280;57641;51.416;5.506;2023-07-22T06:38:21;101458.84;;;20.73;54.14
70248;BME280;57641;51.416;5.506;2023-07-22T06:40:47;101464.16;;;20.53;54.55
70248;BME280;57641;51.416;5.506;2023-07-22T06:43:12;101460.00;;;20.57;54.40
70248;BME280;57641;51.416;5.506;2023-07-22T06:45:38;101467.16;;;20.71;54.47
70248;BME280;57641;51.416;5.506;2023-07-22T06:48:03;101471.13;;;20.75;54.47
70248;BME280;57641;51.416;5.506;2023-07-22T06:50:29;101465.69;;;20.62;55.02
70248;BME280;57641;51.416;5.506;2023-07-22T06:52:54;101466.34;;;20.77;54.58
70248;BME280;57641;51.416;5.506;2023-07-22T06:55:20;101459.66;;;20.80;54.79
70248;BME280;57641;51.416;5.506;2023-07-22T06:58:05;101449.03;;;20.72;55.04
70248;BME280;57641;51.416;5.506;2023-07-22T07:00:54;101454.25;;;20.80;55.05
70248;BME280;57641;51.416;5.506;2023-07-22T07:03:21;101454.06;;;21.07;54.69
70248;BME280;57641;51.416;5.506;2023-07-22T07:05:57;101450.09;;;20.90;54.92
70248;BME280;57641;51.416;5.506;2023-07-22T07:08:23;101446.59;;;21.16;54.72
70248;BME280;57641;51.416;5.506;2023-07-22T07:10:49;101447.03;;;21.20;54.51
70248;BME280;57641;51.416;5.506;2023-07-22T07:13:16;101438.28;;;21.24;54.54
70248;BME280;57641;51.416;5.506;2023-07-22T07:15:46;101444.94;;;21.35;54.47
70248;BME280;57641;51.416;5.506;2023-07-22T07:18:15;101440.56;;;21.34;54.70
70248;BME280;57641;51.416;5.506;2023-07-22T07:20:41;101433.88;;;21.17;55.11
70248;BME280;57641;51.416;5.506;2023-07-22T07:23:06;101433.88;;;21.30;54.40
70248;BME280;57641;51.416;5.506;2023-07-22T07:25:36;101435.13;;;21.40;54.54
70248;BME280;57641;51.416;5.506;2023-07-22T07:28:03;101433.47;;;21.39;54.84
70248;BME280;57641;51.416;5.506;2023-07-22T07:30:28;101435.31;;;21.52;54.65
70248;BME280;57641;51.416;5.506;2023-07-22T07:32:54;101426.53;;;21.63;54.72
70248;BME280;57641;51.416;5.506;2023-07-22T07:35:19;101433.16;;;21.87;54.22
70248;BME280;57641;51.416;5.506;2023-07-22T07:37:44;101435.69;;;21.88;53.98
70248;BME280;57641;51.416;5.506;2023-07-22T07:40:11;101436.09;;;21.85;54.29
70248;BME280;57641;51.416;5.506;2023-07-22T07:42:37;101439.63;;;21.92;53.98
70248;BME280;57641;51.416;5.506;2023-07-22T07:45:03;101440.09;;;21.63;54.40
70248;BME280;57641;51.416;5.506;2023-07-22T07:47:29;101443.25;;;21.54;54.91
70248;BME280;57641;51.416;5.506;2023-07-22T07:49:54;101451.16;;;21.75;54.63
70248;BME280;57641;51.416;5.506;2023-07-22T07:52:20;101443.63;;;21.83;54.45
70248;BME280;57641;51.416;5.506;2023-07-22T07:54:45;101444.22;;;21.85;54.24
70248;BME280;57641;51.416;5.506;2023-07-22T07:57:11;101448.63;;;21.80;54.53
70248;BME280;57641;51.416;5.506;2023-07-22T07:59:36;101445.69;;;21.88;54.31
70248;BME280;57641;51.416;5.506;2023-07-22T08:02:01;101449.84;;;21.84;53.96
70248;BME280;57641;51.416;5.506;2023-07-22T08:04:29;101450.66;;;22.11;53.96
70248;BME280;57641;51.416;5.506;2023-07-22T08:06:54;101452.50;;;22.23;53.71
70248;BME280;57641;51.416;5.506;2023-07-22T08:09:20;101452.94;;;22.20;53.13
70248;BME280;57641;51.416;5.506;2023-07-22T08:11:46;101456.25;;;22.22;53.20
70248;BME280;57641;51.416;5.506;2023-07-22T08:14:12;101452.13;;;22.13;52.96
70248;BME280;57641;51.416;5.506;2023-07-22T08:16:39;101453.72;;;22.27;52.77
70248;BME280;57641;51.416;5.506;2023-07-22T08:19:04;101449.31;;;22.33;52.47
70248;BME280;57641;51.416;5.506;2023-07-22T08:21:30;101457.38;;;22.53;52.88
70248;BME280;57641;51.416;5.506;2023-07-22T08:23:55;101447.56;;;22.52;52.44
70248;BME280;57641;51.416;5.506;2023-07-22T08:26:25;101449.16;;;22.66;52.65
70248;BME280;57641;51.416;5.506;2023-07-22T08:28:51;101455.31;;;22.48;52.88
70248;BME280;57641;51.416;5.506;2023-07-22T08:31:16;101456.47;;;22.72;52.30
70248;BME280;57641;51.416;5.506;2023-07-22T08:33:42;101457.69;;;22.69;51.88
70248;BME280;57641;51.416;5.506;2023-07-22T08:36:08;101457.69;;;22.69;51.22
70248;BME280;57641;51.416;5.506;2023-07-22T08:38:34;101459.72;;;22.43;51.93
70248;BME280;57641;51.416;5.506;2023-07-22T08:40:59;101456.81;;;22.38;51.13
70248;BME280;57641;51.416;5.506;2023-07-22T08:43:28;101456.31;;;22.54;51.48
70248;BME280;57641;51.416;5.506;2023-07-22T08:45:54;101466.34;;;22.15;53.15
70248;BME280;57641;51.416;5.506;2023-07-22T08:48:22;101453.34;;;22.24;53.31
70248;BME280;57641;51.416;5.506;2023-07-22T08:51:13;101452.09;;;22.58;51.39
70248;BME280;57641;51.416;5.506;2023-07-22T08:53:43;101458.81;;;22.62;51.70
70248;BME280;57641;51.416;5.506;2023-07-22T08:56:12;101454.94;;;22.38;51.78
70248;BME280;57641;51.416;5.506;2023-07-22T08:58:38;101455.72;;;22.90;50.79
70248;BME280;57641;51.416;5.506;2023-07-22T09:01:04;101461.91;;;22.72;51.68
70248;BME280;57641;51.416;5.506;2023-07-22T09:03:32;101456.00;;;22.82;51.42
70248;BME280;57641;51.416;5.506;2023-07-22T09:05:59;101453.72;;;23.10;50.26
70248;BME280;57641;51.416;5.506;2023-07-22T09:08:25;101458.69;;;23.13;49.97
70248;BME280;57641;51.416;5.506;2023-07-22T09:10:51;101462.75;;;23.29;49.63
70248;BME280;57641;51.416;5.506;2023-07-22T09:13:18;101460.03;;;23.53;49.58
70248;BME280;57641;51.416;5.506;2023-07-22T09:15:47;101454.84;;;23.70;48.65
70248;BME280;57641;51.416;5.506;2023-07-22T09:18:18;101456.00;;;23.63;48.71
70248;BME280;57641;51.416;5.506;2023-07-22T09:20:44;101454.69;;;23.65;48.72
70248;BME280;57641;51.416;5.506;2023-07-22T09:23:11;101465.06;;;23.56;47.31
70248;BME280;57641;51.416;5.506;2023-07-22T09:25:37;101458.16;;;23.29;49.61
70248;BME280;57641;51.416;5.506;2023-07-22T09:28:02;101451.50;;;23.50;49.10
70248;BME280;57641;51.416;5.506;2023-07-22T09:30:30;101438.06;;;23.55;48.91
70248;BME280;57641;51.416;5.506;2023-07-22T09:32:58;101443.97;;;23.70;48.28
70248;BME280;57641;51.416;5.506;2023-07-22T09:35:27;101437.66;;;23.94;47.98
70248;BME280;57641;51.416;5.506;2023-07-22T09:37:54;101437.94;;;24.23;47.80
70248;BME280;57641;51.416;5.506;2023-07-22T09:40:27;101433.75;;;24.38;46.93
70248;BME280;57641;51.416;5.506;2023-07-22T09:42:55;101436.50;;;24.68;46.64
70248;BME280;57641;51.416;5.506;2023-07-22T09:45:23;101434.47;;;24.64;46.48
70248;BME280;57641;51.416;5.506;2023-07-22T09:47:50;101443.19;;;24.84;45.27
70248;BME280;57641;51.416;5.506;2023-07-22T09:50:24;101438.94;;;24.10;46.67
70248;BME280;57641;51.416;5.506;2023-07-22T09:52:58;101448.31;;;24.32;46.23
70248;BME280;57641;51.416;5.506;2023-07-22T09:55:27;101448.75;;;24.11;46.15
70248;BME280;57641;51.416;5.506;2023-07-22T09:58:03;101434.44;;;24.34;45.63
70248;BME280;57641;51.416;5.506;2023-07-22T10:00:33;101439.91;;;24.16;45.50
70248;BME280;57641;51.416;5.506;2023-07-22T10:03:01;101437.84;;;23.75;44.73
70248;BME280;57641;51.416;5.506;2023-07-22T10:05:35;101430.28;;;24.13;44.95
70248;BME280;57641;51.416;5.506;2023-07-22T10:08:02;101429.44;;;24.13;45.61
70248;BME280;57641;51.416;5.506;2023-07-22T10:10:51;101438.69;;;23.75;45.57
70248;BME280;57641;51.416;5.506;2023-07-22T10:13:38;101441.09;;;24.02;45.66
70248;BME280;57641;51.416;5.506;2023-07-22T10:16:05;101447.25;;;23.29;46.38
70248;BME280;57641;51.416;5.506;2023-07-22T10:18:31;101439.81;;;23.68;46.70
70248;BME280;57641;51.416;5.506;2023-07-22T10:20:57;101435.69;;;23.83;46.62
70248;BME280;57641;51.416;5.506;2023-07-22T10:23:25;101436.09;;;24.17;46.11
70248;BME280;57641;51.416;5.506;2023-07-22T10:25:52;101431.66;;;24.22;45.00
70248;BME280;57641;51.416;5.506;2023-07-22T10:28:21;101426.66;;;23.83;44.55
70248;BME280;57641;51.416;5.506;2023-07-22T10:30:47;101423.41;;;24.11;45.29
70248;BME280;57641;51.416;5.506;2023-07-22T10:33:13;101435.28;;;24.16;44.63
70248;BME280;57641;51.416;5.506;2023-07-22T10:36:05;101448.22;;;24.03;44.35
70248;BME280;57641;51.416;5.506;2023-07-22T10:38:31;101437.88;;;24.29;44.05
70248;BME280;57641;51.416;5.506;2023-07-22T10:40:57;101432.41;;;23.93;43.60
70248;BME280;57641;51.416;5.506;2023-07-22T10:43:32;101432.78;;;24.33;43.37
70248;BME280;57641;51.416;5.506;2023-07-22T10:46:13;101426.50;;;23.96;42.59
70248;BME280;57641;51.416;5.506;2023-07-22T10:48:40;101431.94;;;24.32;41.81
70248;BME280;57641;51.416;5.506;2023-07-22T10:51:14;101430.88;;;24.52;41.38
70248;BME280;57641;51.416;5.506;2023-07-22T10:53:43;101426.81;;;24.43;40.96
70248;BME280;57641;51.416;5.506;2023-07-22T11:09:06;101424.03;;;24.61;40.34
70248;BME280;57641;51.416;5.506;2023-07-22T11:11:44;101422.41;;;24.71;39.28
70248;BME280;57641;51.416;5.506;2023-07-22T11:14:19;101425.16;;;24.83;39.21
70248;BME280;57641;51.416;5.506;2023-07-22T11:16:47;101418.13;;;25.05;39.46
70248;BME280;57641;51.416;5.506;2023-07-22T11:19:32;101417.78;;;25.13;39.81
70248;BME280;57641;51.416;5.506;2023-07-22T11:22:00;101417.53;;;25.03;38.51
70248;BME280;57641;51.416;5.506;2023-07-22T11:24:26;101410.19;;;25.15;39.88
70248;BME280;57641;51.416;5.506;2023-07-22T11:26:55;101402.81;;;25.04;40.33
70248;BME280;57641;51.416;5.506;2023-07-22T11:29:21;101397.59;;;25.14;38.84
70248;BME280;57641;51.416;5.506;2023-07-22T11:31:49;101391.56;;;25.36;38.74
70248;BME280;57641;51.416;5.506;2023-07-22T11:34:16;101390.25;;;25.15;38.85
70248;BME280;57641;51.416;5.506;2023-07-22T11:36:43;101396.06;;;25.30;38.76
70248;BME280;57641;51.416;5.506;2023-07-22T11:39:21;101381.56;;;25.06;39.07
70248;BME280;57641;51.416;5.506;2023-07-22T11:41:47;101395.09;;;25.13;39.63
70248;BME280;57641;51.416;5.506;2023-07-22T11:44:16;101382.31;;;25.37;39.32
70248;BME280;57641;51.416;5.506;2023-07-22T11:46:59;101384.28;;;25.06;38.55
70248;BME280;57641;51.416;5.506;2023-07-22T11:49:40;101374.34;;;25.12;38.57
70248;BME280;57641;51.416;5.506;2023-07-22T11:52:08;101386.09;;;25.12;38.28
70248;BME280;57641;51.416;5.506;2023-07-22T11:54:36;101385.88;;;25.26;38.03
70248;BME280;57641;51.416;5.506;2023-07-22T11:59:43;101377.69;;;25.14;38.38
70248;BME280;57641;51.416;5.506;2023-07-22T12:02:37;101380.66;;;25.01;38.23
70248;BME280;57641;51.416;5.506;2023-07-22T12:05:04;101366.75;;;25.26;37.77
70248;BME280;57641;51.416;5.506;2023-07-22T12:07:37;101375.41;;;25.46;37.84
70248;BME280;57641;51.416;5.506;2023-07-22T12:10:05;101372.19;;;25.02;36.79
70248;BME280;57641;51.416;5.506;2023-07-22T12:12:45;101378.84;;;25.18;37.30
70248;BME280;57641;51.416;5.506;2023-07-22T12:15:16;101374.84;;;25.55;37.39
70248;BME280;57641;51.416;5.506;2023-07-22T12:17:53;101366.28;;;25.29;36.13
70248;BME280;57641;51.416;5.506;2023-07-22T12:20:24;101369.75;;;25.59;36.07
70248;BME280;57641;51.416;5.506;2023-07-22T12:22:51;101356.19;;;25.52;37.29
70248;BME280;57641;51.416;5.506;2023-07-22T12:25:17;101357.69;;;25.83;37.87
70248;BME280;57641;51.416;5.506;2023-07-22T12:27:44;101346.88;;;25.88;36.54
70248;BME280;57641;51.416;5.506;2023-07-22T12:30:11;101337.81;;;25.99;36.60
70248;BME280;57641;51.416;5.506;2023-07-22T12:32:38;101339.50;;;25.89;36.31
70248;BME280;57641;51.416;5.506;2023-07-22T12:35:05;101340.28;;;25.61;36.11
70248;BME280;57641;51.416;5.506;2023-07-22T12:37:31;101338.84;;;25.47;36.21
70248;BME280;57641;51.416;5.506;2023-07-22T12:39:57;101345.56;;;25.91;36.48
70248;BME280;57641;51.416;5.506;2023-07-22T12:42:23;101339.94;;;25.97;36.43
70248;BME280;57641;51.416;5.506;2023-07-22T12:44:48;101343.09;;;25.78;34.65
70248;BME280;57641;51.416;5.506;2023-07-22T12:47:15;101343.06;;;25.89;34.55
70248;BME280;57641;51.416;5.506;2023-07-22T12:49:40;101337.81;;;25.99;35.41
70248;BME280;57641;51.416;5.506;2023-07-22T12:52:06;101338.38;;;25.61;33.89
70248;BME280;57641;51.416;5.506;2023-07-22T12:54:35;101333.81;;;25.90;34.03
70248;BME280;57641;51.416;5.506;2023-07-22T12:57:01;101336.44;;;25.85;34.89
70248;BME280;57641;51.416;5.506;2023-07-22T12:59:28;101332.88;;;26.13;34.75
70248;BME280;57641;51.416;5.506;2023-07-22T13:01:53;101329.22;;;25.79;34.47
70248;BME280;57641;51.416;5.506;2023-07-22T13:04:19;101329.22;;;26.07;34.52
70248;BME280;57641;51.416;5.506;2023-07-22T13:06:45;101326.75;;;26.06;35.01
70248;BME280;57641;51.416;5.506;2023-07-22T13:09:11;101330.44;;;26.28;34.93